Time;durP1;ratioP1;P1;durP2;ratioP2;P2;SDS_P1;SDS_P2;PMS_P1;PMS_P2;Temp;Humidity;BMP_temperature;BMP_pressure;BME280_temperature;BME280_humidity;BME280_pressure;Samples;Min_cycle;Max_cycle;Signal;HPM_P1;HPM_P2
2021/06/21 00:01:04;;;;;;;61.21;8.75;;;;;;;24.34;45.64;100588.28;463725;113;924812;-76
2021/06/21 00:02:07;;;;;;;40.04;7.72;;;;;;;24.34;45.76;100590.23;463742;113;924148;-75
2021/06/21 00:03:11;;;;;;;64.99;11.26;;;;;;;24.33;45.83;100592.20;463449;113;924091;-76
2021/06/21 00:04:15;;;;;;;64.59;8.61;;;;;;;24.31;45.93;100600.05;457489;115;931936;-75
2021/06/21 00:05:19;;;;;;;62.76;9.08;;;;;;;24.31;46.03;100607.59;446617;117;933061;-76
2021/06/21 00:06:24;;;;;;;55.18;8.03;;;;;;;24.30;46.12;100598.40;457766;115;926417;-74
2021/06/21 00:07:28;;;;;;;54.80;8.72;;;;;;;24.29;46.05;100599.52;458445;115;924512;-75
2021/06/21 00:08:32;;;;;;;61.82;10.14;;;;;;;24.28;45.93;100597.03;457155;115;924041;-75
2021/06/21 00:09:37;;;;;;;64.37;9.74;;;;;;;24.25;45.89;100598.48;457683;115;925963;-77
2021/06/21 00:10:42;;;;;;;61.94;8.36;;;;;;;24.23;45.98;100600.73;461858;114;924613;-74
2021/06/21 00:11:45;;;;;;;57.54;9.16;;;;;;;24.21;45.98;100597.42;459083;114;932213;-75
2021/06/21 00:12:50;;;;;;;77.61;10.29;;;;;;;24.18;45.97;100598.05;457978;115;922439;-73
2021/06/21 00:13:54;;;;;;;56.09;8.90;;;;;;;24.16;45.89;100594.69;447918;118;926301;-75
2021/06/21 00:14:57;;;;;;;83.25;11.97;;;;;;;24.15;45.94;100595.02;447226;118;924079;-77
2021/06/21 00:16:01;;;;;;;62.50;9.73;;;;;;;24.15;46.08;100597.80;449084;118;931194;-75
2021/06/21 00:17:06;;;;;;;67.58;9.85;;;;;;;24.14;46.05;100599.77;450600;117;930079;-75
2021/06/21 00:18:14;;;;;;;87.39;12.01;;;;;;;24.13;46.01;100595.31;446660;118;922714;-76
2021/06/21 00:19:15;;;;;;;78.19;10.43;;;;;;;24.12;45.94;100593.66;449218;118;930132;-76
2021/06/21 00:20:22;;;;;;;76.44;10.55;;;;;;;24.11;46.08;100594.78;448873;118;922398;-75
2021/06/21 00:21:26;;;;;;;76.34;10.23;;;;;;;24.08;46.00;100593.45;449333;116;924034;-72
2021/06/21 00:22:30;;;;;;;76.85;12.19;;;;;;;24.07;45.95;100594.58;454963;115;923411;-76
2021/06/21 00:23:34;;;;;;;73.74;11.62;;;;;;;24.06;45.90;100594.88;454346;115;922771;-75
2021/06/21 00:24:38;;;;;;;69.61;11.55;;;;;;;24.04;45.92;100597.95;455647;115;924763;-76
2021/06/21 00:25:42;;;;;;;75.51;11.14;;;;;;;24.04;45.95;100599.91;455226;115;922532;-75
2021/06/21 00:26:47;;;;;;;92.05;11.57;;;;;;;24.02;45.94;100588.27;454922;115;930312;-75
2021/06/21 00:27:51;;;;;;;75.34;11.33;;;;;;;24.02;45.85;100596.61;454826;115;922518;-76
2021/06/21 00:28:55;;;;;;;75.67;12.45;;;;;;;24.01;45.78;100597.73;455266;115;922545;-75
2021/06/21 00:29:58;;;;;;;82.57;11.61;;;;;;;24.01;45.83;100597.73;454457;115;931892;-76
2021/06/21 00:31:02;;;;;;;83.12;12.14;;;;;;;24.00;45.85;100591.34;455253;115;924268;-74
2021/06/21 00:32:07;;;;;;;63.20;11.19;;;;;;;24.01;45.82;100589.39;455477;115;933912;-76
2021/06/21 00:33:12;;;;;;;81.19;13.04;;;;;;;24.00;45.80;100598.86;455739;115;922817;-74
2021/06/21 00:34:16;;;;;;;82.38;11.26;;;;;;;23.99;45.86;100600.82;455901;115;925362;-74
2021/06/21 00:35:20;;;;;;;73.07;12.24;;;;;;;24.00;45.94;100599.70;454998;115;926887;-74
2021/06/21 00:36:25;;;;;;;71.51;11.06;;;;;;;24.00;45.95;100602.48;454849;114;924873;-74
2021/06/21 00:37:29;;;;;;;71.50;13.39;;;;;;;24.01;45.89;100608.88;457201;115;926737;-75
2021/06/21 00:38:33;;;;;;;84.63;12.82;;;;;;;24.01;45.93;100603.31;459956;114;931813;-74
2021/06/21 00:39:37;;;;;;;78.21;11.96;;;;;;;24.01;45.92;100604.14;448687;118;924694;-74
2021/06/21 00:40:41;;;;;;;84.43;11.49;;;;;;;24.02;45.90;100602.19;447981;116;925372;-75
2021/06/21 00:41:45;;;;;;;89.24;11.69;;;;;;;24.02;45.81;100600.23;454711;114;932409;-76
2021/06/21 00:42:49;;;;;;;91.22;12.92;;;;;;;24.02;45.81;100608.59;453303;114;931820;-74
2021/06/21 00:43:53;;;;;;;74.11;12.55;;;;;;;24.01;45.77;100604.14;457563;114;925447;-74
2021/06/21 00:44:57;;;;;;;87.58;12.43;;;;;;;24.01;45.74;100603.31;461429;114;924951;-74
2021/06/21 00:46:01;;;;;;;85.01;12.46;;;;;;;24.01;45.68;100608.88;460574;114;925834;-73
2021/06/21 00:47:05;;;;;;;76.20;11.99;;;;;;;24.00;45.60;100610.84;459966;114;922572;-74
2021/06/21 00:48:09;;;;;;;89.34;13.25;;;;;;;23.99;45.55;100603.61;460646;114;930922;-74
2021/06/21 00:49:12;;;;;;;88.29;12.62;;;;;;;23.98;45.51;100601.15;448762;118;931728;-73
2021/06/21 00:50:16;;;;;;;82.56;12.69;;;;;;;23.99;45.44;100608.34;452646;116;924026;-75
2021/06/21 00:51:21;;;;;;;88.65;12.61;;;;;;;23.98;45.50;100607.52;447884;117;931889;-76
2021/06/21 00:52:25;;;;;;;93.26;11.49;;;;;;;23.98;45.46;100603.94;450067;117;926295;-74
2021/06/21 00:53:29;;;;;;;91.02;13.37;;;;;;;23.97;45.37;100596.70;448782;117;924099;-71
2021/06/21 00:54:34;;;;;;;81.78;11.62;;;;;;;23.96;45.27;100601.44;448196;117;925536;-72
2021/06/21 00:55:38;;;;;;;87.23;12.06;;;;;;;23.96;45.27;100600.61;449687;116;924913;-72
2021/06/21 00:56:42;;;;;;;83.77;12.84;;;;;;;23.95;45.19;100599.78;447870;117;924937;-71
2021/06/21 00:57:46;;;;;;;70.99;12.06;;;;;;;23.94;45.08;100603.69;449346;117;924027;-71
2021/06/21 00:58:54;;;;;;;81.34;12.93;;;;;;;23.95;45.08;100602.56;450350;117;923931;-71
2021/06/21 01:00:02;;;;;;;87.07;13.02;;;;;;;23.95;45.13;100596.17;448796;117;923793;-73
2021/06/21 01:01:06;;;;;;;73.74;12.65;;;;;;;23.97;45.12;100602.27;449558;117;924342;-74
2021/06/21 01:02:11;;;;;;;81.61;14.29;;;;;;;23.97;45.12;100596.70;447312;117;924622;-74
2021/06/21 01:03:16;;;;;;;76.09;12.17;;;;;;;23.97;45.04;100591.13;449914;116;923941;-76
2021/06/21 01:04:19;;;;;;;103.73;14.26;;;;;;;23.98;44.95;100598.36;450384;117;923478;-75
2021/06/21 01:05:26;;;;;;;102.49;13.43;;;;;;;23.98;44.85;100601.15;447858;117;923969;-75
2021/06/21 01:06:30;;;;;;;92.71;13.91;;;;;;;23.97;44.76;100599.48;447387;117;924584;-74
2021/06/21 01:07:35;;;;;;;82.65;12.69;;;;;;;23.97;44.72;100599.48;448833;117;922892;-75
2021/06/21 01:08:39;;;;;;;90.83;13.59;;;;;;;23.97;44.60;100600.31;447263;117;922494;-75
2021/06/21 01:09:43;;;;;;;86.06;13.49;;;;;;;23.98;44.66;100601.15;446371;117;933879;-74
2021/06/21 01:10:51;;;;;;;101.20;13.87;;;;;;;23.98;44.59;100599.16;449897;117;929612;-74
2021/06/21 01:12:07;;;;;;;83.08;13.28;;;;;;;23.98;44.49;100604.73;448083;117;923064;-75
2021/06/21 01:13:26;;;;;;;97.44;14.08;;;;;;;23.98;44.49;100601.15;448375;117;922884;-76
2021/06/21 01:14:43;;;;;;;69.07;12.54;;;;;;;23.99;44.52;100605.56;448029;118;922642;-75
2021/06/21 01:16:02;;;;;;;95.23;13.96;;;;;;;24.00;44.48;100604.44;445617;118;922895;-75
2021/06/21 01:17:28;;;;;;;93.61;14.71;;;;;;;23.99;44.32;100599.99;450058;115;924377;-78
2021/06/21 01:18:34;;;;;;;99.60;12.83;;;;;;;23.99;44.24;100602.77;454149;115;922883;-75
2021/06/21 01:19:54;;;;;;;106.35;14.57;;;;;;;23.98;44.29;100598.36;446746;117;924517;-73
2021/06/21 01:21:14;;;;;;;90.91;15.52;;;;;;;23.96;44.28;100601.44;449838;116;922500;-74
2021/06/21 01:22:38;;;;;;;95.98;13.94;;;;;;;23.96;44.17;100600.61;444394;118;924012;-75
2021/06/21 01:24:01;;;;;;;87.28;13.08;;;;;;;23.94;44.20;100598.12;449208;117;924072;-77
2021/06/21 01:25:27;;;;;;;97.72;14.00;;;;;;;23.92;44.19;100602.36;446778;118;925200;-74
2021/06/21 01:26:44;;;;;;;98.91;15.55;;;;;;;23.90;44.12;100608.22;447763;118;922578;-73
2021/06/21 01:28:04;;;;;;;92.13;14.19;;;;;;;23.88;44.11;100613.25;449804;117;924671;-75
2021/06/21 01:29:31;;;;;;;87.92;14.52;;;;;;;23.95;44.17;100599.78;473999;110;949436;-75
2021/06/21 01:31:09;;;;;;;88.99;12.35;;;;;;;23.84;44.17;100597.45;464990;113;923960;-76
2021/06/21 01:32:20;;;;;;;86.51;14.16;;;;;;;23.83;44.20;100606.94;464988;113;924886;-74
2021/06/21 01:33:25;;;;;;;116.71;16.43;;;;;;;23.81;44.20;100598.08;464675;114;924055;-75
2021/06/21 01:34:30;;;;;;;92.54;13.68;;;;;;;23.80;44.26;100601.98;457923;114;924010;-75
2021/06/21 01:35:41;;;;;;;83.91;13.43;;;;;;;23.79;44.27;100603.11;464743;114;927313;-75
2021/06/21 01:36:49;;;;;;;90.92;13.54;;;;;;;23.80;44.34;100601.98;459200;114;922810;-76
2021/06/21 01:37:55;;;;;;;84.65;13.89;;;;;;;23.80;44.36;100605.60;459905;114;924040;-77
2021/06/21 01:39:00;;;;;;;98.03;13.69;;;;;;;23.81;44.30;100598.08;462945;114;924446;-74
2021/06/21 01:40:06;;;;;;;79.69;13.94;;;;;;;23.80;44.21;100602.81;460612;114;927043;-75
2021/06/21 01:41:17;;;;;;;89.77;14.91;;;;;;;23.80;44.15;100600.03;462149;114;924052;-71
2021/06/21 01:42:23;;;;;;;92.38;14.37;;;;;;;23.80;44.22;100601.98;458908;114;924054;-76
2021/06/21 01:43:34;;;;;;;94.58;13.73;;;;;;;23.80;44.20;100593.63;460783;114;931912;-76
2021/06/21 01:44:42;;;;;;;;;;;;;;;23.79;44.12;100591.97;462397;114;923323;-75
2021/06/21 01:45:47;;;;;;;103.68;14.24;;;;;;;23.77;43.96;100595.05;463714;114;924339;-76
2021/06/21 01:46:54;;;;;;;95.27;12.91;;;;;;;23.72;43.94;100588.73;458002;114;924007;-76
2021/06/21 01:48:02;;;;;;;95.32;14.52;;;;;;;23.71;43.94;100587.11;458469;114;924466;-74
2021/06/21 01:49:12;;;;;;;83.76;14.13;;;;;;;23.69;43.87;100590.18;462349;114;922539;-76
2021/06/21 01:50:19;;;;;;;103.81;13.65;;;;;;;23.68;43.75;100588.52;458963;114;925422;-74
2021/06/21 01:51:24;;;;;;;88.67;13.54;;;;;;;23.66;43.75;100596.33;460515;114;924130;-73
2021/06/21 01:52:37;;;;;;;77.53;13.64;;;;;;;23.63;43.81;100595.00;464902;114;922646;-75
2021/06/21 01:53:44;;;;;;;81.61;14.13;;;;;;;23.62;43.71;100596.13;461154;114;922404;-75
2021/06/21 01:54:55;;;;;;;82.87;13.89;;;;;;;23.61;43.74;100597.24;461389;114;926021;-74
2021/06/21 01:56:03;;;;;;;;;;;;;;;23.59;43.58;100599.52;468571;114;922015;-73
2021/06/21 01:57:08;;;;;;;95.49;13.07;;;;;;;23.57;43.55;100598.98;464453;114;922547;-77
2021/06/21 01:58:13;;;;;;;99.92;14.78;;;;;;;23.55;43.68;100594.83;460294;114;922577;-75
2021/06/21 01:59:17;;;;;;;88.66;13.73;;;;;;;23.54;43.55;100601.55;461682;114;924555;-75
2021/06/21 02:00:22;;;;;;;88.31;13.92;;;;;;;23.54;43.51;100598.77;461549;114;922420;-74
2021/06/21 02:01:27;;;;;;;89.07;14.65;;;;;;;23.53;43.56;100597.94;451867;115;924079;-75
2021/06/21 02:02:32;;;;;;;93.80;13.65;;;;;;;23.54;43.64;100599.56;450291;114;922565;-76
2021/06/21 02:03:37;;;;;;;78.90;12.70;;;;;;;23.56;43.55;100594.53;457743;114;924519;-76
2021/06/21 02:04:42;;;;;;;91.72;13.74;;;;;;;23.57;43.51;100601.77;463371;114;929910;-75
2021/06/21 02:05:49;;;;;;;98.36;13.24;;;;;;;23.58;43.44;100597.86;462971;114;922078;-74
2021/06/21 02:06:55;;;;;;;92.20;13.83;;;;;;;23.59;43.46;100604.25;463667;114;923751;-76
2021/06/21 02:08:00;;;;;;;92.83;14.18;;;;;;;23.61;43.37;100602.81;463447;114;922321;-76
2021/06/21 02:09:07;;;;;;;104.78;13.69;;;;;;;23.61;43.24;100604.77;465204;114;924031;-73
2021/06/21 02:10:12;;;;;;;83.64;13.40;;;;;;;23.62;43.27;100609.20;458085;114;922898;-75
2021/06/21 02:11:17;;;;;;;79.67;12.92;;;;;;;23.61;43.36;100605.59;457776;114;922925;-73
2021/06/21 02:12:23;;;;;;;90.59;14.26;;;;;;;23.63;43.39;100610.88;460837;114;923974;-75
2021/06/21 02:13:28;;;;;;;85.48;12.94;;;;;;;23.63;43.39;100608.09;464085;114;926481;-74
2021/06/21 02:14:34;;;;;;;75.16;13.18;;;;;;;23.64;43.34;100612.53;461686;114;925013;-74
2021/06/21 02:15:37;;;;;;;97.54;13.49;;;;;;;23.64;43.32;100613.36;458624;114;923971;-74
2021/06/21 02:16:44;;;;;;;89.47;13.68;;;;;;;23.65;43.23;100608.62;459986;114;926048;-75
2021/06/21 02:17:48;;;;;;;76.41;14.02;;;;;;;23.64;43.18;100613.36;462957;114;924098;-74
2021/06/21 02:18:53;;;;;;;84.58;13.18;;;;;;;23.64;43.16;100610.58;460939;114;924974;-73
2021/06/21 02:19:57;;;;;;;78.68;12.59;;;;;;;23.63;43.27;100619.22;464044;114;924024;-74
2021/06/21 02:21:03;;;;;;;78.11;12.88;;;;;;;23.63;43.33;100617.27;461209;114;923885;-75
2021/06/21 02:22:06;;;;;;;92.98;13.08;;;;;;;23.63;43.43;100620.05;457590;114;924023;-76
2021/06/21 02:23:10;;;;;;;76.04;11.92;;;;;;;23.64;43.49;100618.09;459679;114;924090;-76
2021/06/21 02:24:17;;;;;;;74.86;12.89;;;;;;;23.64;43.57;100609.75;461043;114;932619;-73
2021/06/21 02:25:21;;;;;;;80.81;13.56;;;;;;;23.65;43.67;100622.55;457787;114;923820;-76
2021/06/21 02:26:27;;;;;;;81.05;12.03;;;;;;;23.66;43.47;100615.82;461085;114;924446;-74
2021/06/21 02:27:32;;;;;;;78.08;13.37;;;;;;;23.66;43.30;100618.60;460904;114;924070;-74
2021/06/21 02:28:40;;;;;;;83.29;13.64;;;;;;;23.66;43.23;100621.39;457464;114;923986;-74
2021/06/21 02:29:44;;;;;;;81.89;12.47;;;;;;;23.66;43.22;100622.22;464110;114;924096;-73
2021/06/21 02:30:51;;;;;;;87.37;13.59;;;;;;;23.66;43.14;100625.00;460603;114;924304;-75
2021/06/21 02:31:55;;;;;;;76.72;12.53;;;;;;;23.66;43.02;100625.00;460207;114;924004;-74
2021/06/21 02:33:00;;;;;;;85.13;12.47;;;;;;;23.67;43.17;100623.05;460042;114;925408;-75
2021/06/21 02:34:04;;;;;;;90.46;12.95;;;;;;;23.66;43.23;100625.00;458839;114;924005;-75
2021/06/21 02:35:10;;;;;;;81.94;11.76;;;;;;;23.65;43.03;100628.91;459274;114;924014;-74
2021/06/21 02:36:14;;;;;;;72.88;10.91;;;;;;;23.65;43.07;100622.55;463474;114;924597;-75
2021/06/21 02:37:18;;;;;;;71.81;12.53;;;;;;;23.65;42.98;100628.11;461698;114;923990;-74
2021/06/21 02:38:22;;;;;;;67.03;12.49;;;;;;;23.65;42.99;100630.89;459821;114;932851;-74
2021/06/21 02:39:27;;;;;;;77.58;11.30;;;;;;;23.65;43.00;100617.77;460998;114;924457;-75
2021/06/21 02:40:32;;;;;;;85.57;13.08;;;;;;;23.65;43.00;100622.55;460201;114;923954;-72
2021/06/21 02:41:36;;;;;;;75.36;12.95;;;;;;;23.64;42.96;100621.71;460056;114;924020;-75
2021/06/21 02:42:40;;;;;;;80.74;13.09;;;;;;;23.65;42.91;100619.77;459196;114;923983;-75
2021/06/21 02:43:44;;;;;;;86.77;12.72;;;;;;;23.64;42.85;100627.28;461564;114;926704;-75
2021/06/21 02:44:48;;;;;;;104.02;13.58;;;;;;;23.64;42.82;100616.14;452133;115;925677;-75
2021/06/21 02:45:53;;;;;;;70.78;11.87;;;;;;;23.64;42.89;100620.88;454189;114;925493;-75
2021/06/21 02:46:57;;;;;;;93.81;13.96;;;;;;;23.65;42.84;100628.11;461923;114;924003;-74
2021/06/21 02:48:04;;;;;;;76.95;11.73;;;;;;;23.64;42.88;100624.50;460448;114;923905;-73
2021/06/21 02:49:07;;;;;;;78.77;12.18;;;;;;;23.64;42.82;100627.28;460392;114;925433;-75
2021/06/21 02:50:14;;;;;;;73.76;12.37;;;;;;;23.65;42.81;100628.91;457902;114;924807;-75
2021/06/21 02:51:21;;;;;;;75.47;11.57;;;;;;;23.66;42.86;100630.57;463890;114;926894;-75
2021/06/21 02:52:28;;;;;;;75.17;10.98;;;;;;;23.66;42.87;100630.57;464187;114;925528;-73
2021/06/21 02:53:42;;;;;;;72.33;12.08;;;;;;;23.66;42.77;100630.57;462390;114;925403;-75
2021/06/21 02:55:10;;;;;;;70.23;10.66;;;;;;;23.67;42.67;100635.02;452189;116;925458;-75
2021/06/21 02:56:31;;;;;;;88.41;11.81;;;;;;;23.66;42.54;100636.14;464112;114;922334;-73
2021/06/21 02:57:38;;;;;;;75.40;11.88;;;;;;;23.64;42.54;100637.58;464741;114;922610;-75
2021/06/21 02:58:45;;;;;;;85.08;12.40;;;;;;;23.62;42.55;100632.31;463420;114;922819;-75
2021/06/21 02:59:50;;;;;;;83.11;11.81;;;;;;;23.62;42.57;100646.23;464742;114;922840;-75
2021/06/21 03:00:57;;;;;;;74.66;11.99;;;;;;;23.62;42.60;100639.83;461196;114;922367;-76
2021/06/21 03:02:01;;;;;;;76.24;11.93;;;;;;;23.61;42.64;100640.95;462527;114;923569;-75
2021/06/21 03:03:08;;;;;;;81.39;11.29;;;;;;;23.60;42.64;100642.91;463821;114;922248;-75
2021/06/21 03:04:14;;;;;;;60.06;9.68;;;;;;;23.59;42.61;100641.27;445516;118;922455;-76
2021/06/21 03:05:19;;;;;;;80.90;11.83;;;;;;;23.60;42.66;100645.69;444825;114;923944;-75
2021/06/21 03:06:25;;;;;;;70.99;11.76;;;;;;;23.61;42.72;100647.34;462063;114;923854;-75
2021/06/21 03:07:37;;;;;;;89.06;12.41;;;;;;;23.60;42.74;100654.03;460428;114;926806;-76
2021/06/21 03:08:41;;;;;;;;;;;;;;;23.60;42.60;100656.82;466084;114;924717;-74
2021/06/21 03:09:47;;;;;;;67.51;10.24;;;;;;;23.61;42.73;100649.30;460747;114;923404;-74
2021/06/21 03:10:51;;;;;;;77.56;11.97;;;;;;;23.59;42.75;100662.71;460768;114;930281;-76
2021/06/21 03:11:56;;;;;;;75.51;10.68;;;;;;;23.56;42.95;100663.30;464761;114;924744;-75
2021/06/21 03:13:02;;;;;;;77.34;11.68;;;;;;;23.56;43.04;100657.73;464602;114;924025;-75
2021/06/21 03:14:06;;;;;;;80.23;11.36;;;;;;;23.56;43.13;100666.91;459869;114;924083;-76
2021/06/21 03:15:11;;;;;;;78.90;11.65;;;;;;;23.56;43.20;100663.30;461098;114;924015;-76
2021/06/21 03:16:17;;;;;;;72.16;11.33;;;;;;;23.56;43.19;100666.91;463131;114;924015;-76
2021/06/21 03:17:23;;;;;;;72.46;11.75;;;;;;;23.55;43.17;100668.03;463150;114;924040;-75
2021/06/21 03:18:27;;;;;;;66.25;10.07;;;;;;;23.55;43.27;100669.98;460492;114;932589;-73
2021/06/21 03:19:31;;;;;;;84.42;11.97;;;;;;;23.54;43.26;100671.94;458654;114;924089;-75
2021/06/21 03:20:35;;;;;;;76.29;12.46;;;;;;;23.54;43.37;100663.58;457826;114;925198;-75
2021/06/21 03:21:42;;;;;;;70.39;11.35;;;;;;;23.56;43.42;100672.47;459090;114;923274;-76
2021/06/21 03:22:48;;;;;;;80.68;11.31;;;;;;;23.56;43.46;100668.86;459907;114;923891;-74
2021/06/21 03:23:54;;;;;;;69.00;12.00;;;;;;;23.56;43.41;100675.26;461287;114;924055;-77
2021/06/21 03:24:57;;;;;;;72.01;10.72;;;;;;;23.56;43.58;100675.26;462689;114;924609;-74
2021/06/21 03:26:04;;;;;;;65.13;11.15;;;;;;;23.56;43.69;100680.83;460106;114;924129;-76
2021/06/21 03:27:08;;;;;;;68.35;10.76;;;;;;;23.56;43.73;100675.26;459187;114;924000;-75
2021/06/21 03:28:13;;;;;;;90.93;11.41;;;;;;;23.57;43.73;100681.66;459350;114;925806;-75
2021/06/21 03:29:19;;;;;;;77.54;11.90;;;;;;;23.59;43.84;100685.81;462897;114;923996;-75
2021/06/21 03:30:24;;;;;;;89.88;12.60;;;;;;;23.60;43.79;100686.61;458199;115;931975;-77
2021/06/21 03:31:28;;;;;;;65.04;9.94;;;;;;;23.60;43.72;100690.23;457875;115;922467;-75
2021/06/21 03:32:35;;;;;;;69.39;10.76;;;;;;;23.61;43.60;100685.49;456837;115;926518;-75
2021/06/21 03:33:39;;;;;;;62.63;11.39;;;;;;;23.60;43.71;100681.88;455846;115;931719;-73
2021/06/21 03:34:42;;;;;;;71.24;12.65;;;;;;;23.62;43.82;100690.77;458907;115;924127;-76
2021/06/21 03:35:48;;;;;;;70.24;11.16;;;;;;;23.64;43.94;100684.91;458882;115;932059;-74
2021/06/21 03:36:52;;;;;;;58.35;10.82;;;;;;;23.65;44.15;100679.02;457931;115;924115;-75
2021/06/21 03:37:56;;;;;;;69.94;11.19;;;;;;;23.67;43.99;100687.08;457989;115;925389;-75
2021/06/21 03:39:00;;;;;;;69.89;11.56;;;;;;;23.68;43.90;100688.74;458155;115;924283;-74
2021/06/21 03:40:09;;;;;;;75.61;12.65;;;;;;;23.68;44.03;100685.95;459669;115;926314;-76
2021/06/21 03:41:12;;;;;;;82.08;11.98;;;;;;;23.69;44.17;100690.41;459963;115;922512;-75
2021/06/21 03:42:17;;;;;;;65.65;11.38;;;;;;;23.69;44.12;100688.45;449071;117;925156;-76
2021/06/21 03:43:24;;;;;;;76.29;10.18;;;;;;;23.71;44.00;100690.11;451211;115;924671;-75
2021/06/21 03:44:28;;;;;;;58.33;9.55;;;;;;;23.70;44.15;100689.28;457859;115;926269;-73
2021/06/21 03:45:32;;;;;;;55.81;10.58;;;;;;;23.71;44.20;100692.90;456300;115;922559;-73
2021/06/21 03:46:37;;;;;;;71.79;12.83;;;;;;;23.73;44.20;100696.19;458929;115;922705;-76
2021/06/21 03:47:41;;;;;;;63.43;10.68;;;;;;;23.74;44.05;100689.50;459854;115;923647;-76
2021/06/21 03:48:45;;;;;;;67.65;10.54;;;;;;;23.75;44.11;100693.95;458531;115;924570;-75
2021/06/21 03:49:49;;;;;;;68.32;10.94;;;;;;;23.77;44.24;100698.08;461494;115;922910;-76
2021/06/21 03:50:53;;;;;;;68.56;11.16;;;;;;;23.77;44.17;100692.50;459051;115;922395;-75
2021/06/21 03:51:57;;;;;;;75.70;10.86;;;;;;;23.78;44.08;100694.17;458926;115;922394;-74
2021/06/21 03:53:01;;;;;;;56.54;10.55;;;;;;;23.79;43.96;100693.05;457416;115;923515;-75
2021/06/21 03:54:06;;;;;;;71.03;10.55;;;;;;;23.79;43.75;100687.47;461378;115;922333;-74
2021/06/21 03:55:10;;;;;;;71.27;12.11;;;;;;;23.80;43.63;100686.35;457753;115;930260;-75
2021/06/21 03:56:14;;;;;;;67.97;11.38;;;;;;;23.82;43.68;100691.63;459531;115;923614;-75
2021/06/21 03:57:18;;;;;;;63.49;10.04;;;;;;;23.82;43.54;100678.51;459497;115;922784;-75
2021/06/21 03:58:22;;;;;;;75.72;10.72;;;;;;;23.83;43.47;100680.17;458217;115;923140;-75
2021/06/21 03:59:27;;;;;;;65.28;10.66;;;;;;;23.84;43.51;100681.00;457304;115;924749;-74
2021/06/21 04:00:32;;;;;;;65.79;11.62;;;;;;;23.83;43.44;100680.17;457763;115;932634;-75
2021/06/21 04:01:36;;;;;;;72.97;11.06;;;;;;;23.83;43.39;100682.95;457728;115;924059;-74
2021/06/21 04:02:41;;;;;;;67.04;11.38;;;;;;;23.83;43.41;100680.17;451397;117;924512;-74
2021/06/21 04:03:45;;;;;;;73.70;11.20;;;;;;;23.84;43.51;100681.00;449832;115;924131;-75
2021/06/21 04:04:48;;;;;;;61.66;10.40;;;;;;;23.84;43.45;100678.22;458466;115;933397;-75
2021/06/21 04:05:52;;;;;;;67.44;10.76;;;;;;;23.84;43.46;100681.00;459708;115;933572;-75
2021/06/21 04:06:57;;;;;;;68.33;10.89;;;;;;;23.86;43.62;100684.32;459146;115;924079;-73
2021/06/21 04:08:00;;;;;;;67.62;10.72;;;;;;;23.86;43.58;100684.32;459678;115;926853;-74
2021/06/21 04:09:04;;;;;;;58.51;8.68;;;;;;;23.86;43.68;100687.11;457447;115;931841;-75
2021/06/21 04:10:13;;;;;;;64.42;10.88;;;;;;;23.88;43.76;100684.83;459703;115;924702;-73
2021/06/21 04:11:16;;;;;;;64.56;9.62;;;;;;;23.89;43.73;100684.54;458298;115;924106;-74
2021/06/21 04:12:23;;;;;;;66.62;9.43;;;;;;;23.90;43.83;100683.41;460453;115;924474;-75
2021/06/21 04:13:29;;;;;;;75.11;12.13;;;;;;;23.92;43.61;100689.53;458645;115;925242;-73
2021/06/21 04:14:33;;;;;;;66.43;10.96;;;;;;;23.93;43.48;100682.80;456799;115;924566;-75
2021/06/21 04:15:37;;;;;;;72.21;11.02;;;;;;;23.94;43.55;100690.03;458421;115;925997;-73
2021/06/21 04:16:43;;;;;;;63.09;11.07;;;;;;;23.96;43.52;100695.31;459525;115;924954;-75
2021/06/21 04:17:47;;;;;;;74.69;10.33;;;;;;;23.98;43.19;100696.65;456257;115;924399;-74
2021/06/21 04:18:51;;;;;;;56.58;9.27;;;;;;;24.00;43.10;100699.14;458416;115;924501;-73
2021/06/21 04:19:55;;;;;;;60.78;10.22;;;;;;;24.02;43.08;100702.47;458316;115;924005;-74
2021/06/21 04:20:59;;;;;;;50.62;9.18;;;;;;;24.02;42.88;100697.73;459948;115;924749;-76
2021/06/21 04:22:04;;;;;;;71.22;10.93;;;;;;;24.04;42.79;100697.40;459585;115;927736;-75
2021/06/21 04:23:09;;;;;;;73.25;11.61;;;;;;;24.04;42.70;100698.23;456612;115;931765;-75
2021/06/21 04:24:13;;;;;;;76.21;12.06;;;;;;;24.04;42.68;100701.02;456479;115;923085;-74
2021/06/21 04:25:18;;;;;;;69.50;11.19;;;;;;;24.05;42.71;100705.47;456421;115;925270;-75
2021/06/21 04:26:23;;;;;;;62.18;10.87;;;;;;;24.05;42.91;100711.03;456800;115;923917;-73
2021/06/21 04:27:27;;;;;;;77.62;10.12;;;;;;;24.06;42.76;100711.87;455766;115;924481;-75
2021/06/21 04:28:32;;;;;;;61.83;10.16;;;;;;;24.05;42.66;100711.03;455970;115;924154;-75
2021/06/21 04:29:36;;;;;;;68.95;9.81;;;;;;;24.07;42.74;100713.53;458392;115;930205;-74
2021/06/21 04:30:44;;;;;;;67.17;9.46;;;;;;;24.06;42.60;100715.48;465710;113;930277;-76
2021/06/21 04:31:48;;;;;;;54.58;8.44;;;;;;;24.06;42.46;100717.44;464046;113;923279;-75
2021/06/21 04:32:54;;;;;;;60.81;9.26;;;;;;;24.06;42.59;100715.48;459259;113;922518;-75
2021/06/21 04:33:58;;;;;;;68.43;9.25;;;;;;;24.07;42.73;100724.67;459843;113;922564;-77
2021/06/21 04:35:04;;;;;;;59.02;8.74;;;;;;;24.08;42.71;100731.91;458476;113;922577;-76
2021/06/21 04:36:08;;;;;;;62.55;9.74;;;;;;;24.08;42.71;100723.55;463343;113;922830;-73
2021/06/21 04:37:12;;;;;;;58.60;9.86;;;;;;;24.08;42.52;100724.38;462288;113;922680;-73
2021/06/21 04:38:17;;;;;;;55.75;8.76;;;;;;;24.08;42.47;100727.16;465975;113;922535;-74
2021/06/21 04:39:20;;;;;;;59.35;9.76;;;;;;;24.10;42.67;100732.41;461280;113;930449;-74
2021/06/21 04:40:29;;;;;;;69.01;9.57;;;;;;;24.11;42.88;100728.50;461188;113;922499;-75
2021/06/21 04:41:32;;;;;;;61.28;9.64;;;;;;;24.12;42.89;100727.38;457248;113;922685;-74
2021/06/21 04:42:36;;;;;;;55.08;8.91;;;;;;;24.13;42.99;100729.05;462928;113;922643;-74
2021/06/21 04:43:40;;;;;;;72.45;9.96;;;;;;;24.14;43.08;100727.92;464619;113;922352;-74
2021/06/21 04:44:44;;;;;;;73.32;11.54;;;;;;;24.16;42.98;100728.42;463344;113;922336;-74
2021/06/21 04:45:48;;;;;;;65.13;9.99;;;;;;;24.16;42.87;100720.06;459566;113;923805;-74
2021/06/21 04:46:53;;;;;;;69.76;10.18;;;;;;;24.16;42.94;100725.64;460327;113;924286;-74
2021/06/21 04:47:57;;;;;;;54.99;9.58;;;;;;;24.17;42.97;100723.69;463976;113;932057;-73
2021/06/21 04:49:04;;;;;;;64.55;11.22;;;;;;;24.18;43.04;100723.42;464419;113;923900;-77
2021/06/21 04:50:12;;;;;;;65.55;9.84;;;;;;;24.19;43.17;100722.30;459021;113;923409;-75
2021/06/21 04:51:20;;;;;;;70.71;9.69;;;;;;;24.20;43.04;100723.96;460589;113;924492;-75
2021/06/21 04:52:28;;;;;;;49.54;9.61;;;;;;;24.22;42.94;100727.25;461920;113;924518;-74
2021/06/21 04:53:30;;;;;;;52.87;8.64;;;;;;;24.24;43.06;100724.17;465589;113;923938;-75
2021/06/21 04:54:34;;;;;;;56.43;8.55;;;;;;;24.25;42.98;100723.05;463549;113;922580;-75
2021/06/21 04:55:38;;;;;;;59.19;9.17;;;;;;;24.25;42.87;100720.27;460996;113;927758;-73
2021/06/21 04:56:43;;;;;;;48.37;8.99;;;;;;;24.24;42.88;100716.64;460001;113;932163;-75
2021/06/21 04:57:47;;;;;;;61.27;8.77;;;;;;;24.25;42.90;100720.27;460357;113;925319;-76
2021/06/21 04:58:52;;;;;;;62.90;8.55;;;;;;;24.24;43.08;100722.22;461189;113;924031;-77